createdAt,value
2018-05-24T00:00:13.236Z,0
2018-05-24T00:01:13.285Z,0
2018-05-24T00:02:13.150Z,0
2018-05-24T00:03:13.135Z,0
2018-05-24T00:04:13.165Z,0
2018-05-24T00:05:13.205Z,0
2018-05-24T00:06:13.134Z,0
2018-05-24T00:07:13.213Z,0
2018-05-24T00:08:13.208Z,0
2018-05-24T00:09:13.181Z,0
2018-05-24T00:10:13.212Z,0
2018-05-24T00:11:13.214Z,0
2018-05-24T00:12:13.273Z,0
2018-05-24T00:13:13.252Z,0
2018-05-24T00:14:13.215Z,0
2018-05-24T00:15:13.216Z,0
2018-05-24T00:16:13.196Z,0
2018-05-24T00:17:13.191Z,0
2018-05-24T00:18:13.180Z,0
2018-05-24T00:19:13.235Z,0
2018-05-24T00:20:13.254Z,0
2018-05-24T00:21:13.351Z,0
2018-05-24T00:22:13.240Z,0
2018-05-24T00:23:13.253Z,0
2018-05-24T00:24:13.241Z,0
2018-05-24T00:25:13.129Z,0
2018-05-24T00:26:13.146Z,0
2018-05-24T00:27:13.181Z,0
2018-05-24T00:28:13.207Z,0
2018-05-24T00:29:13.246Z,0
2018-05-24T00:30:13.190Z,0
2018-05-24T00:31:13.225Z,0
2018-05-24T00:32:13.182Z,0
2018-05-24T00:33:13.209Z,0
2018-05-24T00:34:13.163Z,0
2018-05-24T00:35:13.262Z,0
2018-05-24T00:36:13.247Z,0
2018-05-24T00:37:13.193Z,0
2018-05-24T00:38:13.150Z,0
2018-05-24T00:39:13.226Z,0
2018-05-24T00:40:13.260Z,0
2018-05-24T00:41:13.274Z,0
2018-05-24T00:42:13.255Z,0
2018-05-24T00:43:13.271Z,0
2018-05-24T00:44:13.234Z,0
2018-05-24T00:45:13.259Z,0
2018-05-24T00:46:13.274Z,0
2018-05-24T00:47:13.172Z,0
2018-05-24T00:48:13.216Z,0
2018-05-24T00:49:13.295Z,0
2018-05-24T00:50:13.218Z,0
2018-05-24T00:51:13.444Z,0
2018-05-24T00:52:13.274Z,0
2018-05-24T00:53:13.242Z,0
2018-05-24T00:54:13.266Z,0
2018-05-24T00:55:13.181Z,0
2018-05-24T00:56:13.146Z,0
2018-05-24T00:57:13.240Z,0
2018-05-24T00:58:13.281Z,0
2018-05-24T00:59:13.167Z,0
2018-05-24T01:00:13.241Z,0
2018-05-24T01:01:13.209Z,0
2018-05-24T01:02:13.165Z,0
2018-05-24T01:03:13.208Z,0
2018-05-24T01:04:13.171Z,0
2018-05-24T01:05:13.249Z,0
2018-05-24T01:06:13.154Z,0
2018-05-24T01:07:13.219Z,0
2018-05-24T01:08:13.253Z,0
2018-05-24T01:09:13.209Z,0
2018-05-24T01:10:13.288Z,0
2018-05-24T01:11:13.216Z,0
2018-05-24T01:12:13.174Z,0
2018-05-24T01:13:13.282Z,0
2018-05-24T01:14:13.175Z,0
2018-05-24T01:15:13.213Z,0
2018-05-24T01:16:13.289Z,0
2018-05-24T01:17:13.290Z,0
2018-05-24T01:18:13.293Z,0
2018-05-24T01:19:13.215Z,0
2018-05-24T01:20:13.176Z,0
2018-05-24T01:21:13.256Z,0
2018-05-24T01:22:13.300Z,0
2018-05-24T01:23:13.256Z,0
2018-05-24T01:24:13.177Z,0
2018-05-24T01:25:13.256Z,0
2018-05-24T01:26:13.203Z,0
2018-05-24T01:27:13.275Z,0
2018-05-24T01:28:13.258Z,0
2018-05-24T01:29:13.287Z,0
2018-05-24T01:30:13.183Z,0
2018-05-24T01:31:13.261Z,0
2018-05-24T01:32:13.255Z,0
2018-05-24T01:33:13.216Z,0
2018-05-24T01:34:13.170Z,0
2018-05-24T01:35:13.261Z,0
2018-05-24T01:36:13.216Z,0
2018-05-24T01:37:13.219Z,0
2018-05-24T01:38:13.191Z,0
2018-05-24T01:39:13.226Z,0
2018-05-24T01:40:13.172Z,0
2018-05-24T01:41:13.180Z,0
2018-05-24T01:42:13.215Z,0
2018-05-24T01:43:13.271Z,0
2018-05-24T01:44:13.273Z,0
2018-05-24T01:45:13.243Z,0
2018-05-24T01:46:13.246Z,0
2018-05-24T01:47:13.244Z,0
2018-05-24T01:48:13.276Z,0
2018-05-24T01:49:13.301Z,0
2018-05-24T01:50:13.281Z,0
2018-05-24T01:51:13.197Z,0
2018-05-24T01:52:13.201Z,0
2018-05-24T01:53:13.198Z,0
2018-05-24T01:54:13.320Z,0
2018-05-24T01:55:13.184Z,0
2018-05-24T01:56:13.264Z,0
2018-05-24T01:57:13.280Z,0
2018-05-24T01:58:13.289Z,0
2018-05-24T01:59:13.268Z,0
2018-05-24T02:00:13.284Z,0
2018-05-24T02:01:13.310Z,0
2018-05-24T02:02:13.320Z,0
2018-05-24T02:03:13.185Z,0
2018-05-24T02:04:13.310Z,0
2018-05-24T02:05:13.307Z,0
2018-05-24T02:06:13.191Z,0
2018-05-24T02:07:13.191Z,0
2018-05-24T02:08:13.267Z,0
2018-05-24T02:09:13.290Z,0
2018-05-24T02:10:17.766Z,0
2018-05-24T02:11:13.253Z,0
2018-05-24T02:12:13.291Z,0
2018-05-24T02:13:13.291Z,0
2018-05-24T02:14:13.324Z,0
2018-05-24T02:15:13.252Z,0
2018-05-24T02:16:13.292Z,0
2018-05-24T02:17:13.296Z,0
2018-05-24T02:18:13.333Z,0
2018-05-24T02:19:13.294Z,0
2018-05-24T02:20:13.297Z,0
2018-05-24T02:21:13.256Z,0
2018-05-24T02:22:13.219Z,0
2018-05-24T02:23:13.330Z,0
2018-05-24T02:24:13.237Z,0
2018-05-24T02:25:13.231Z,0
2018-05-24T02:26:13.301Z,0
2018-05-24T02:27:13.231Z,0
2018-05-24T02:28:13.303Z,0
2018-05-24T02:29:13.319Z,0
2018-05-24T02:30:13.239Z,0
2018-05-24T02:31:13.346Z,0
2018-05-24T02:32:13.270Z,0
2018-05-24T02:33:13.236Z,0
2018-05-24T02:34:13.298Z,0
2018-05-24T02:35:13.222Z,0
2018-05-24T02:36:13.211Z,0
2018-05-24T02:37:13.232Z,0
2018-05-24T02:38:13.306Z,0
2018-05-24T02:39:13.180Z,0
2018-05-24T02:40:13.304Z,0
2018-05-24T02:41:13.248Z,0
2018-05-24T02:42:13.206Z,0
2018-05-24T02:43:13.313Z,0
2018-05-24T02:44:13.342Z,0
2018-05-24T02:45:13.279Z,0
2018-05-24T02:46:13.211Z,0
2018-05-24T02:47:13.313Z,0
2018-05-24T02:48:13.314Z,0
2018-05-24T02:49:13.318Z,0
2018-05-24T02:50:13.216Z,0
2018-05-24T02:51:13.222Z,0
2018-05-24T02:52:13.315Z,0
2018-05-24T02:53:13.339Z,0
2018-05-24T02:54:13.224Z,0
2018-05-24T02:55:13.316Z,0
2018-05-24T02:56:13.289Z,0
2018-05-24T02:57:13.349Z,0
2018-05-24T02:58:13.278Z,0
2018-05-24T02:59:13.350Z,0
2018-05-24T03:00:13.232Z,0
2018-05-24T03:01:13.359Z,0
2018-05-24T03:02:13.342Z,0
2018-05-24T03:03:13.357Z,0
2018-05-24T03:04:13.221Z,0
2018-05-24T03:05:13.213Z,0
2018-05-24T03:06:13.283Z,0
2018-05-24T03:07:13.319Z,0
2018-05-24T03:08:13.213Z,0
2018-05-24T03:09:13.284Z,0
2018-05-24T03:10:13.195Z,0
2018-05-24T03:11:13.276Z,0
2018-05-24T03:12:13.255Z,0
2018-05-24T03:13:13.235Z,0
2018-05-24T03:14:13.283Z,0
2018-05-24T03:15:13.273Z,0
2018-05-24T03:16:13.362Z,0
2018-05-24T03:17:13.240Z,0
2018-05-24T03:18:13.241Z,0
2018-05-24T03:19:13.254Z,0
2018-05-24T03:20:13.336Z,0
2018-05-24T03:21:13.343Z,0
2018-05-24T03:22:13.379Z,0
2018-05-24T03:23:13.257Z,0
2018-05-24T03:24:13.258Z,0
2018-05-24T03:25:13.332Z,0
2018-05-24T03:26:13.328Z,0
2018-05-24T03:27:13.305Z,0
2018-05-24T03:28:13.274Z,0
2018-05-24T03:29:13.335Z,0
2018-05-24T03:30:13.333Z,0
2018-05-24T03:31:13.373Z,0
2018-05-24T03:32:13.327Z,0
2018-05-24T03:33:13.246Z,0
2018-05-24T03:34:13.279Z,0
2018-05-24T03:35:13.476Z,0
2018-05-24T03:36:13.369Z,0
2018-05-24T03:37:13.310Z,0
2018-05-24T03:38:13.285Z,0
2018-05-24T03:39:13.249Z,0
2018-05-24T03:40:13.304Z,0
2018-05-24T03:41:13.382Z,0
2018-05-24T03:42:13.323Z,0
2018-05-24T03:43:13.369Z,0
2018-05-24T03:44:13.304Z,16
2018-05-24T03:45:13.320Z,18
2018-05-24T03:46:13.316Z,20
2018-05-24T03:47:13.335Z,22
2018-05-24T03:48:13.289Z,24
2018-05-24T03:49:13.360Z,25
2018-05-24T03:50:13.383Z,28
2018-05-24T03:51:13.354Z,30
2018-05-24T03:52:13.269Z,32
2018-05-24T03:53:13.330Z,33
2018-05-24T03:54:13.292Z,35
2018-05-24T03:55:13.289Z,38
2018-05-24T03:56:13.357Z,40
2018-05-24T03:57:13.359Z,40
2018-05-24T03:58:13.313Z,42
2018-05-24T03:59:13.291Z,45
2018-05-24T04:00:13.357Z,44
2018-05-24T04:01:13.299Z,46
2018-05-24T04:02:13.359Z,46
2018-05-24T04:03:13.310Z,45
2018-05-24T04:04:13.341Z,45
2018-05-24T04:05:13.387Z,48
2018-05-24T04:06:13.416Z,48
2018-05-24T04:07:13.347Z,49
2018-05-24T04:08:13.381Z,49
2018-05-24T04:09:13.341Z,49
2018-05-24T04:10:13.369Z,49
2018-05-24T04:11:13.427Z,52
2018-05-24T04:12:13.404Z,52
2018-05-24T04:13:13.336Z,53
2018-05-24T04:14:13.330Z,54
2018-05-24T04:15:13.339Z,52
2018-05-24T04:16:13.336Z,54
2018-05-24T04:17:13.477Z,56
2018-05-24T04:18:13.374Z,57
2018-05-24T04:19:13.411Z,58
2018-05-24T04:20:13.309Z,57
2018-05-24T04:21:13.280Z,59
2018-05-24T04:22:13.269Z,62
2018-05-24T04:23:13.349Z,64
2018-05-24T04:24:13.409Z,67
2018-05-24T04:25:13.393Z,69
2018-05-24T04:26:13.336Z,72
2018-05-24T04:27:13.404Z,74
2018-05-24T04:28:13.349Z,75
2018-05-24T04:29:13.401Z,72
2018-05-24T04:30:13.341Z,75
2018-05-24T04:31:13.345Z,81
2018-05-24T04:32:13.382Z,85
2018-05-24T04:33:13.409Z,90
2018-05-24T04:34:13.313Z,93
2018-05-24T04:35:13.382Z,95
2018-05-24T04:36:13.414Z,97
2018-05-24T04:37:13.314Z,100
2018-05-24T04:38:13.315Z,104
2018-05-24T04:39:13.382Z,109
2018-05-24T04:40:13.385Z,100
2018-05-24T04:41:13.324Z,104
2018-05-24T04:42:13.385Z,106
2018-05-24T04:43:13.399Z,111
2018-05-24T04:44:13.418Z,116
2018-05-24T04:45:13.372Z,116
2018-05-24T04:46:13.520Z,110
2018-05-24T04:47:13.365Z,118
2018-05-24T04:48:13.390Z,115
2018-05-24T04:49:13.365Z,114
2018-05-24T04:50:13.427Z,113
2018-05-24T04:51:13.291Z,118
2018-05-24T04:52:13.343Z,108
2018-05-24T04:53:13.363Z,111
2018-05-24T04:54:13.332Z,110
2018-05-24T04:55:13.398Z,106
2018-05-24T04:56:13.332Z,106
2018-05-24T04:57:13.359Z,103
2018-05-24T04:58:13.331Z,100
2018-05-24T04:59:13.398Z,98
2018-05-24T05:00:13.398Z,97
2018-05-24T05:01:13.327Z,96
2018-05-24T05:02:13.361Z,97
2018-05-24T05:03:13.399Z,95
2018-05-24T05:04:13.305Z,99
2018-05-24T05:05:13.299Z,100
2018-05-24T05:07:13.399Z,109
2018-05-24T05:08:13.358Z,116
2018-05-24T05:09:13.362Z,118
2018-05-24T05:10:13.321Z,132
2018-05-24T05:11:13.428Z,137
2018-05-24T05:12:13.386Z,146
2018-05-24T05:13:13.444Z,153
2018-05-24T05:14:13.428Z,160
2018-05-24T05:15:13.444Z,166
2018-05-24T05:16:13.332Z,168
2018-05-24T05:17:13.373Z,170
2018-05-24T05:18:13.405Z,175
2018-05-24T05:19:13.307Z,174
2018-05-24T05:20:13.430Z,174
2018-05-24T05:21:13.374Z,173
2018-05-24T05:22:13.410Z,169
2018-05-24T05:23:13.593Z,168
2018-05-24T05:24:13.416Z,169
2018-05-24T05:25:13.466Z,167
2018-05-24T05:26:13.347Z,166
2018-05-24T05:27:13.413Z,167
2018-05-24T05:28:13.413Z,168
2018-05-24T05:29:13.352Z,167
2018-05-24T05:30:13.422Z,168
2018-05-24T05:31:13.420Z,165
2018-05-24T05:32:13.418Z,156
2018-05-24T05:33:13.351Z,153
2018-05-24T05:34:13.368Z,156
2018-05-24T05:35:13.297Z,159
2018-05-24T05:36:13.305Z,163
2018-05-24T05:37:13.354Z,172
2018-05-24T05:38:13.477Z,173
2018-05-24T05:39:13.378Z,169
2018-05-24T05:40:13.407Z,165
2018-05-24T05:41:13.345Z,159
2018-05-24T05:42:13.357Z,152
2018-05-24T05:43:13.412Z,151
2018-05-24T05:44:13.382Z,150
2018-05-24T05:45:13.441Z,151
2018-05-24T05:46:13.399Z,153
2018-05-24T05:47:13.431Z,153
2018-05-24T05:48:13.406Z,156
2018-05-24T05:49:13.406Z,161
2018-05-24T05:50:13.403Z,167
2018-05-24T05:51:13.458Z,174
2018-05-24T05:52:13.403Z,181
2018-05-24T05:53:13.468Z,187
2018-05-24T05:54:13.362Z,188
2018-05-24T05:55:13.434Z,189
2018-05-24T05:56:13.365Z,188
2018-05-24T05:57:13.364Z,187
2018-05-24T05:58:13.433Z,186
2018-05-24T05:59:13.437Z,180
2018-05-24T06:00:13.398Z,178
2018-05-24T06:01:13.373Z,175
2018-05-24T06:02:13.372Z,175
2018-05-24T06:03:13.440Z,180
2018-05-24T06:04:13.398Z,184
2018-05-24T06:05:13.346Z,184
2018-05-24T06:06:13.465Z,192
2018-05-24T06:07:13.367Z,197
2018-05-24T06:08:13.442Z,200
2018-05-24T06:09:13.476Z,202
2018-05-24T06:10:13.487Z,205
2018-05-24T06:11:13.405Z,205
2018-05-24T06:12:13.427Z,219
2018-05-24T06:13:13.406Z,226
2018-05-24T06:14:13.470Z,232
2018-05-24T06:15:13.484Z,237
2018-05-24T06:16:13.462Z,244
2018-05-24T06:17:13.421Z,249
2018-05-24T06:18:13.407Z,254
2018-05-24T06:19:13.369Z,244
2018-05-24T06:20:13.348Z,254
2018-05-24T06:21:13.469Z,252
2018-05-24T06:22:13.351Z,251
2018-05-24T06:23:13.481Z,258
2018-05-24T06:24:13.310Z,259
2018-05-24T06:25:13.350Z,276
2018-05-24T06:26:13.324Z,279
2018-05-24T06:27:13.401Z,271
2018-05-24T06:28:13.358Z,261
2018-05-24T06:29:13.350Z,247
2018-05-24T06:30:13.348Z,238
2018-05-24T06:31:13.381Z,228
2018-05-24T06:32:13.442Z,217
2018-05-24T06:33:13.418Z,210
2018-05-24T06:34:13.465Z,208
2018-05-24T06:35:13.493Z,201
2018-05-24T06:36:13.479Z,203
2018-05-24T06:37:13.456Z,209
2018-05-24T06:38:13.464Z,223
2018-05-24T06:39:13.430Z,229
2018-05-24T06:40:13.498Z,223
2018-05-24T06:41:13.494Z,215
2018-05-24T06:42:13.499Z,207
2018-05-24T06:43:13.367Z,182
2018-05-24T06:44:13.398Z,192
2018-05-24T06:45:13.465Z,189
2018-05-24T06:46:13.406Z,190
2018-05-24T06:47:13.466Z,177
2018-05-24T06:48:13.485Z,191
2018-05-24T06:49:13.428Z,186
2018-05-24T06:50:13.467Z,193
2018-05-24T06:51:13.401Z,199
2018-05-24T06:52:13.363Z,200
2018-05-24T06:53:13.403Z,193
2018-05-24T06:54:13.473Z,183
2018-05-24T06:55:13.406Z,174
2018-05-24T06:56:13.420Z,170
2018-05-24T06:57:13.405Z,168
2018-05-24T06:58:13.402Z,173
2018-05-24T06:59:13.473Z,182
2018-05-24T07:00:13.475Z,209
2018-05-24T07:01:13.406Z,216
2018-05-24T07:02:13.480Z,194
2018-05-24T07:03:13.478Z,215
2018-05-24T07:04:13.493Z,245
2018-05-24T07:05:13.475Z,250
2018-05-24T07:06:13.449Z,253
2018-05-24T07:07:13.459Z,254
2018-05-24T07:08:13.421Z,253
2018-05-24T07:09:13.500Z,257
2018-05-24T07:10:13.418Z,250
2018-05-24T07:11:13.504Z,245
2018-05-24T07:12:13.380Z,240
2018-05-24T07:13:13.486Z,238
2018-05-24T07:14:13.530Z,239
2018-05-24T07:15:13.497Z,246
2018-05-24T07:16:13.426Z,254
2018-05-24T07:17:13.443Z,266
2018-05-24T07:18:13.502Z,284
2018-05-24T07:19:13.459Z,354
2018-05-24T07:20:13.390Z,404
2018-05-24T07:21:13.487Z,416
2018-05-24T07:22:13.410Z,439
2018-05-24T07:23:13.492Z,452
2018-05-24T07:24:13.492Z,350
2018-05-24T07:25:13.445Z,337
2018-05-24T07:26:13.471Z,328
2018-05-24T07:27:13.447Z,312
2018-05-24T07:28:13.444Z,295
2018-05-24T07:29:13.489Z,274
2018-05-24T07:30:13.447Z,257
2018-05-24T07:31:13.463Z,243
2018-05-24T07:32:13.515Z,231
2018-05-24T07:33:13.450Z,219
2018-05-24T07:35:13.398Z,185
2018-05-24T07:36:13.433Z,171
2018-05-24T07:37:13.425Z,159
2018-05-24T07:38:13.421Z,156
2018-05-24T07:39:13.365Z,153
2018-05-24T07:40:13.365Z,152
2018-05-24T07:41:13.423Z,150
2018-05-24T07:42:13.451Z,149
2018-05-24T07:43:13.464Z,149
2018-05-24T07:44:13.380Z,148
2018-05-24T07:45:13.414Z,146
2018-05-24T07:46:13.477Z,148
2018-05-24T07:47:13.474Z,152
2018-05-24T07:48:13.546Z,153
2018-05-24T07:49:13.482Z,156
2018-05-24T07:50:13.546Z,161
2018-05-24T07:51:13.528Z,188
2018-05-24T07:52:13.494Z,208
2018-05-24T07:53:13.486Z,272
2018-05-24T07:54:13.488Z,268
2018-05-24T07:55:13.406Z,261
2018-05-24T07:56:13.374Z,364
2018-05-24T07:57:13.356Z,299
2018-05-24T07:58:13.319Z,422
2018-05-24T07:59:13.323Z,349
2018-05-24T08:00:13.307Z,363
2018-05-24T08:01:13.374Z,355
2018-05-24T08:02:13.484Z,354
2018-05-24T08:03:13.305Z,358
2018-05-24T08:04:13.333Z,372
2018-05-24T08:05:13.476Z,371
2018-05-24T08:06:13.484Z,491
2018-05-24T08:07:13.487Z,466
2018-05-24T08:08:13.518Z,483
2018-05-24T08:09:13.420Z,525
2018-05-24T08:10:13.545Z,547
2018-05-24T08:11:13.457Z,521
2018-05-24T08:12:13.490Z,531
2018-05-24T08:13:13.545Z,529
2018-05-24T08:14:13.548Z,545
2018-05-24T08:15:13.526Z,593
2018-05-24T08:16:13.527Z,648
2018-05-24T08:17:13.524Z,633
2018-05-24T08:18:13.416Z,620
2018-05-24T08:19:13.469Z,672
2018-05-24T08:20:13.528Z,701
2018-05-24T08:21:13.453Z,782
2018-05-24T08:22:13.533Z,764
2018-05-24T08:23:13.528Z,754
2018-05-24T08:24:13.525Z,723
2018-05-24T08:25:13.566Z,737
2018-05-24T08:26:13.493Z,618
2018-05-24T08:27:13.487Z,658
2018-05-24T08:28:13.549Z,680
2018-05-24T08:29:13.453Z,698
2018-05-24T08:30:13.502Z,760
2018-05-24T08:31:13.536Z,829
2018-05-24T08:32:13.456Z,775
2018-05-24T08:33:13.548Z,771
2018-05-24T08:34:13.459Z,880
2018-05-24T08:35:13.647Z,906
2018-05-24T08:36:13.569Z,890
2018-05-24T08:37:13.512Z,890
2018-05-24T08:38:13.460Z,840
2018-05-24T08:39:13.573Z,689
2018-05-24T08:40:13.541Z,736
2018-05-24T08:41:13.443Z,639
2018-05-24T08:42:13.546Z,684
2018-05-24T08:43:13.559Z,577
2018-05-24T08:44:13.562Z,557
2018-05-24T08:45:13.483Z,560
2018-05-24T08:46:13.470Z,593
2018-05-24T08:47:13.658Z,621
2018-05-24T08:48:13.582Z,605
2018-05-24T08:49:13.589Z,572
2018-05-24T08:50:13.523Z,521
2018-05-24T08:51:13.622Z,516
2018-05-24T08:52:13.562Z,540
2018-05-24T08:53:13.551Z,543
2018-05-24T08:54:13.512Z,530
2018-05-24T08:55:13.552Z,550
2018-05-24T08:56:13.546Z,772
2018-05-24T08:57:13.510Z,924
2018-05-24T08:58:13.571Z,669
2018-05-24T08:59:13.592Z,538
2018-05-24T09:00:13.520Z,505
2018-05-24T09:01:13.547Z,490
2018-05-24T09:02:13.456Z,464
2018-05-24T09:03:13.468Z,452
2018-05-24T09:04:13.593Z,428
2018-05-24T09:05:13.531Z,422
2018-05-24T09:06:13.603Z,407
2018-05-24T09:07:13.519Z,390
2018-05-24T09:08:13.522Z,374
2018-05-24T09:09:13.589Z,350
2018-05-24T09:10:13.589Z,335
2018-05-24T09:11:13.518Z,329
2018-05-24T09:12:13.539Z,318
2018-05-24T09:13:13.582Z,304
2018-05-24T09:14:13.570Z,292
2018-05-24T09:15:13.564Z,288
2018-05-24T09:16:13.492Z,289
2018-05-24T09:17:13.561Z,286
2018-05-24T09:18:13.564Z,281
2018-05-24T09:19:13.498Z,279
2018-05-24T09:20:13.629Z,280
2018-05-24T09:21:13.498Z,284
2018-05-24T09:22:13.575Z,289
2018-05-24T09:23:13.596Z,292
2018-05-24T09:24:13.567Z,294
2018-05-24T09:25:13.500Z,300
2018-05-24T09:26:13.502Z,304
2018-05-24T09:27:13.503Z,305
2018-05-24T09:28:13.574Z,305
2018-05-24T09:29:13.608Z,305
2018-05-24T09:30:13.506Z,300
2018-05-24T09:31:13.582Z,292
2018-05-24T09:32:13.509Z,281
2018-05-24T09:33:13.507Z,276
2018-05-24T09:34:13.672Z,282
2018-05-24T09:35:13.541Z,290
2018-05-24T09:36:13.621Z,295
2018-05-24T09:37:13.604Z,293
2018-05-24T09:38:13.610Z,290
2018-05-24T09:39:13.533Z,282
2018-05-24T09:40:13.613Z,280
2018-05-24T09:41:13.579Z,291
2018-05-24T09:42:13.648Z,298
2018-05-24T09:43:13.604Z,300
2018-05-24T09:44:13.541Z,294
2018-05-24T09:45:13.507Z,287
2018-05-24T09:46:13.481Z,288
2018-05-24T09:47:13.616Z,285
2018-05-24T09:48:13.603Z,278
2018-05-24T09:49:13.584Z,271
2018-05-24T09:50:13.609Z,266
2018-05-24T09:51:13.579Z,261
2018-05-24T09:52:13.621Z,261
2018-05-24T09:53:13.558Z,260
2018-05-24T09:54:13.550Z,256
2018-05-24T09:55:13.555Z,255
2018-05-24T09:56:13.591Z,255
2018-05-24T09:57:13.591Z,253
2018-05-24T09:58:13.520Z,264
2018-05-24T09:59:13.593Z,270
2018-05-24T10:00:13.524Z,271
2018-05-24T10:01:13.594Z,268
2018-05-24T10:02:13.525Z,259
2018-05-24T10:03:13.611Z,242
2018-05-24T10:04:13.522Z,228
2018-05-24T10:05:13.623Z,224
2018-05-24T10:06:13.563Z,222
2018-05-24T10:07:13.558Z,223
2018-05-24T10:08:13.566Z,218
2018-05-24T10:09:13.636Z,218
2018-05-24T10:10:13.636Z,222
2018-05-24T10:11:13.635Z,223
2018-05-24T10:12:13.634Z,223
2018-05-24T10:13:13.619Z,227
2018-05-24T10:14:13.564Z,235
2018-05-24T10:15:13.632Z,247
2018-05-24T10:16:13.667Z,262
2018-05-24T10:17:13.605Z,277
2018-05-24T10:18:13.575Z,282
2018-05-24T10:19:13.643Z,278
2018-05-24T10:20:13.580Z,267
2018-05-24T10:21:13.633Z,253
2018-05-24T10:22:13.579Z,243
2018-05-24T10:23:13.647Z,240
2018-05-24T10:24:13.578Z,235
2018-05-24T10:25:13.529Z,232
2018-05-24T10:26:13.642Z,236
2018-05-24T10:27:13.579Z,237
2018-05-24T10:28:13.516Z,236
2018-05-24T10:29:13.588Z,238
2018-05-24T10:30:13.630Z,241
2018-05-24T10:31:13.649Z,246
2018-05-24T10:32:13.657Z,252
2018-05-24T10:33:13.651Z,259
2018-05-24T10:34:13.638Z,266
2018-05-24T10:35:13.539Z,268
2018-05-24T10:36:13.534Z,267
2018-05-24T10:37:13.543Z,257
2018-05-24T10:38:13.635Z,244
2018-05-24T10:39:13.651Z,225
2018-05-24T10:40:13.556Z,196
2018-05-24T10:41:13.656Z,174
2018-05-24T10:42:13.520Z,139
2018-05-24T10:43:13.594Z,124
2018-05-24T10:44:13.582Z,131
2018-05-24T10:45:13.546Z,152
2018-05-24T10:46:13.576Z,171
2018-05-24T10:47:13.525Z,181
2018-05-24T10:48:13.617Z,193
2018-05-24T10:49:13.553Z,212
2018-05-24T10:50:13.494Z,218
2018-05-24T10:51:13.558Z,223
2018-05-24T10:52:13.522Z,226
2018-05-24T10:53:13.557Z,229
2018-05-24T10:54:13.549Z,242
2018-05-24T10:55:13.621Z,240
2018-05-24T10:56:13.625Z,234
2018-05-24T10:57:13.564Z,229
2018-05-24T10:58:13.686Z,222
2018-05-24T10:59:13.668Z,210
2018-05-24T11:00:13.553Z,204
2018-05-24T11:01:13.557Z,206
2018-05-24T11:02:13.652Z,201
2018-05-24T11:03:13.628Z,199
2018-05-24T11:04:13.538Z,194
2018-05-24T11:05:13.633Z,192
2018-05-24T11:06:13.626Z,194
2018-05-24T11:07:13.596Z,201
2018-05-24T11:08:13.574Z,208
2018-05-24T11:09:13.569Z,221
2018-05-24T11:10:13.640Z,234
2018-05-24T11:11:13.599Z,252
2018-05-24T11:12:13.642Z,264
2018-05-24T11:13:13.568Z,279
2018-05-24T11:14:13.565Z,304
2018-05-24T11:15:13.595Z,338
2018-05-24T11:16:13.656Z,377
2018-05-24T11:17:13.588Z,395
2018-05-24T11:18:13.499Z,412
2018-05-24T11:19:13.544Z,431
2018-05-24T11:20:13.499Z,444
2018-05-24T11:21:13.502Z,430
2018-05-24T11:22:13.501Z,413
2018-05-24T11:23:13.502Z,406
2018-05-24T11:24:13.595Z,394
2018-05-24T11:25:13.638Z,374
2018-05-24T11:26:13.667Z,377
2018-05-24T11:27:13.634Z,377
2018-05-24T11:28:13.675Z,364
2018-05-24T11:29:13.610Z,361
2018-05-24T11:30:13.611Z,361
2018-05-24T11:31:13.575Z,352
2018-05-24T11:32:13.674Z,345
2018-05-24T11:33:13.651Z,341
2018-05-24T11:34:13.614Z,333
2018-05-24T11:35:13.691Z,333
2018-05-24T11:36:13.574Z,346
2018-05-24T11:37:13.734Z,353
2018-05-24T11:38:13.655Z,358
2018-05-24T11:39:13.675Z,365
2018-05-24T11:40:13.621Z,363
2018-05-24T11:41:13.629Z,366
2018-05-24T11:42:13.756Z,374
2018-05-24T11:43:13.702Z,382
2018-05-24T11:44:13.677Z,383
2018-05-24T11:45:13.586Z,386
2018-05-24T11:46:13.694Z,376
2018-05-24T11:47:13.622Z,343
2018-05-24T11:48:13.562Z,271
2018-05-24T11:49:13.583Z,219
2018-05-24T11:50:13.677Z,183
2018-05-24T11:51:13.601Z,126
2018-05-24T11:52:13.703Z,94
2018-05-24T11:53:13.640Z,83
2018-05-24T11:54:13.681Z,79
2018-05-24T11:55:13.702Z,75
2018-05-24T11:56:13.634Z,81
2018-05-24T11:57:13.667Z,115
2018-05-24T11:58:13.685Z,115
2018-05-24T11:59:13.671Z,111
2018-05-24T12:00:13.627Z,117
2018-05-24T12:01:13.632Z,106
2018-05-24T12:02:13.652Z,117
2018-05-24T12:03:13.694Z,153
2018-05-24T12:04:13.702Z,189
2018-05-24T12:05:13.709Z,226
2018-05-24T12:06:13.712Z,293
2018-05-24T12:07:13.714Z,347
2018-05-24T12:08:13.636Z,382
2018-05-24T12:09:13.676Z,382
2018-05-24T12:10:13.643Z,362
2018-05-24T12:11:13.644Z,352
2018-05-24T12:12:13.677Z,351
2018-05-24T12:13:13.711Z,350
2018-05-24T12:14:13.757Z,340
2018-05-24T12:15:13.741Z,330
2018-05-24T12:16:13.646Z,323
2018-05-24T12:17:13.705Z,312
2018-05-24T12:18:13.639Z,316
2018-05-24T12:19:13.657Z,319
2018-05-24T12:20:13.642Z,316
2018-05-24T12:21:13.706Z,297
2018-05-24T12:22:13.608Z,289
2018-05-24T12:23:13.715Z,304
2018-05-24T12:24:13.607Z,319
2018-05-24T12:25:13.701Z,340
2018-05-24T12:26:13.686Z,352
2018-05-24T12:27:13.607Z,371
2018-05-24T12:28:13.657Z,391
2018-05-24T12:29:13.684Z,420
2018-05-24T12:30:13.673Z,454
2018-05-24T12:31:13.614Z,465
2018-05-24T12:32:13.717Z,458
2018-05-24T12:33:13.725Z,445
2018-05-24T12:34:13.714Z,436
2018-05-24T12:35:13.834Z,434
2018-05-24T12:36:13.669Z,410
2018-05-24T12:37:13.619Z,385
2018-05-24T12:38:13.717Z,367
2018-05-24T12:39:13.617Z,349
2018-05-24T12:40:13.734Z,335
2018-05-24T12:41:13.599Z,324
2018-05-24T12:42:13.616Z,308
2018-05-24T12:43:13.701Z,301
2018-05-24T12:44:13.602Z,289
2018-05-24T12:45:13.700Z,276
2018-05-24T12:46:13.599Z,265
2018-05-24T12:47:13.646Z,259
2018-05-24T12:48:13.645Z,256
2018-05-24T12:49:13.558Z,142
2018-05-24T12:50:13.602Z,221
2018-05-24T12:51:13.649Z,194
2018-05-24T12:52:13.652Z,185
2018-05-24T12:53:13.610Z,179
2018-05-24T12:54:13.561Z,172
2018-05-24T12:55:13.652Z,169
2018-05-24T12:56:13.646Z,171
2018-05-24T12:57:13.667Z,163
2018-05-24T12:58:13.708Z,156
2018-05-24T12:59:13.743Z,160
2018-05-24T13:00:13.718Z,149
2018-05-24T13:01:13.629Z,145
2018-05-24T13:02:13.674Z,148
2018-05-24T13:03:13.619Z,164
2018-05-24T13:04:13.794Z,169
2018-05-24T13:05:13.692Z,173
2018-05-24T13:06:13.677Z,177
2018-05-24T13:07:13.687Z,176
2018-05-24T13:08:13.618Z,160
2018-05-24T13:09:13.688Z,144
2018-05-24T13:10:13.789Z,139
2018-05-24T13:11:13.697Z,135
2018-05-24T13:12:13.748Z,135
2018-05-24T13:13:13.660Z,135
2018-05-24T13:14:13.717Z,135
2018-05-24T13:15:13.627Z,131
2018-05-24T13:16:13.620Z,121
2018-05-24T13:17:13.698Z,118
2018-05-24T13:18:13.758Z,144
2018-05-24T13:19:13.716Z,181
2018-05-24T13:20:13.749Z,213
2018-05-24T13:21:13.718Z,237
2018-05-24T13:22:13.732Z,243
2018-05-24T13:23:13.764Z,237
2018-05-24T13:24:13.751Z,218
2018-05-24T13:25:13.720Z,195
2018-05-24T13:26:13.756Z,207
2018-05-24T13:27:13.748Z,228
2018-05-24T13:28:13.705Z,236
2018-05-24T13:29:13.697Z,230
2018-05-24T13:30:13.679Z,218
2018-05-24T13:31:13.750Z,200
2018-05-24T13:32:13.701Z,180
2018-05-24T13:33:13.691Z,164
2018-05-24T13:34:13.773Z,164
2018-05-24T13:35:13.727Z,176
2018-05-24T13:36:13.751Z,180
2018-05-24T13:37:13.733Z,163
2018-05-24T13:38:13.763Z,144
2018-05-24T13:39:13.739Z,157
2018-05-24T13:40:13.735Z,184
2018-05-24T13:41:13.758Z,198
2018-05-24T13:42:13.760Z,192
2018-05-24T13:43:13.679Z,179
2018-05-24T13:44:13.744Z,182
2018-05-24T13:45:13.681Z,188
2018-05-24T13:46:13.661Z,207
2018-05-24T13:47:13.627Z,241
2018-05-24T13:48:13.669Z,282
2018-05-24T13:49:13.724Z,284
2018-05-24T13:50:13.730Z,276
2018-05-24T13:51:13.646Z,287
2018-05-24T13:52:13.739Z,284
2018-05-24T13:53:13.672Z,275
2018-05-24T13:54:13.648Z,262
2018-05-24T13:55:13.651Z,263
2018-05-24T13:56:13.748Z,282
2018-05-24T13:57:13.748Z,301
2018-05-24T13:58:13.679Z,314
2018-05-24T13:59:13.750Z,325
2018-05-24T14:00:13.745Z,326
2018-05-24T14:01:13.697Z,318
2018-05-24T14:02:13.718Z,301
2018-05-24T14:03:13.720Z,284
2018-05-24T14:04:13.683Z,271
2018-05-24T14:05:13.757Z,260